Green Spring, West Virginia
Current Conditions -  °F | °C
As of 8:13 AM on Thursday 30 Oct 2014 (Local Time) from KCBE Reporting Station
Overcast Overcast  
Wind Chill: 46°   Ceiling: 5000
Heat Index: 48°   Visibility: 10mi
Dew Point: 34°   Wind: 6mph
Humidity: 57%   Direction: 320°NW
Pressure: 30.11"   Gusts: NA
Location:  39.53°N, 78.62°W
Report Text: KCBE 301213Z AUTO 32005KT 10SM OVC050 09/01 A3011 RMK AO1
Loading
Personal Weather Stations






























Interactive Weather Map
Tropical Storm Tracking
New forecast layout! Learn more

10-Day Weather Forecast

Advertisements
Track Severe Weather on mobile